Messwerte Dakar

Temperatur

Temperatur
°C
1574200800 22.00 22.00 25
1574204400 23.00 23.00 25
1574208000 0.00 0.00 24
1574211600 1.00 1.00
1574215200 2.00 2.00
1574218800 3.00 3.00 24
1574222400 4.00 4.00
1574226000 5.00 5.00
1574229600 6.00 6.00 24
1574233200 7.00 7.00 24
1574236800 8.00 8.00 24
1574240400 9.00 9.00 24
1574244000 10.00 10.00 25
1574247600 11.00 11.00
1574251200 12.00 12.00
1574254800 13.00 13.00 27
1574258400 14.00 14.00
1574262000 15.00 15.00 27
1574265600 16.00 16.00 27
1574269200 17.00 17.00 26
1574272800 18.00 18.00 25
1574276400 19.00 19.00 25
1574280000 20.00 20.00 24
1574283600 21.00 21.00 24

Aktuellste Messwerte

Wettercharakter
Wetter: meist klar
Temperatur
24 °C
Feuchtigkeit
65 %
Wind
10 km/hWindrichtung: Nordwest
Luftdruck
1011 hPa
Messzeit: 20. November 2019, 20.00Datenquelle: METAR

Weitere Messstationen in der Nähe

Messstation Temperatur Entfernung
Diourbel 29 °C 137 km
Kaolack 29 °C 168 km
Saint-Louis 23 °C 192 km
Banjul 25 °C 194 km
Linguere 28 °C 265 km
Cap Skirring 26 °C 271 km
Ziguinchor 24 °C 276 km

Wind

Windrichtung Böen Mittelwind
° km/h km/h
1574200800 22.00 21.00 - 22.00 20° 15
1574204400 23.00 22.00 - 23.00 40° 15
1574208000 0.00 23.00 - 0.00 40° 15
1574211600 1.00 0.00 - 1.00
1574215200 2.00 1.00 - 2.00
1574218800 3.00 2.00 - 3.00 40° 15
1574222400 4.00 3.00 - 4.00
1574226000 5.00 4.00 - 5.00
1574229600 6.00 5.00 - 6.00 360° 10
1574233200 7.00 6.00 - 7.00 360° 10
1574236800 8.00 7.00 - 8.00 360° 10
1574240400 9.00 8.00 - 9.00 60° 20
1574244000 10.00 9.00 - 10.00 20° 20
1574247600 11.00 10.00 - 11.00
1574251200 12.00 11.00 - 12.00
1574254800 13.00 12.00 - 13.00 40° 20
1574258400 14.00 13.00 - 14.00
1574262000 15.00 14.00 - 15.00 320° 20
1574265600 16.00 15.00 - 16.00 320° 10
1574269200 17.00 16.00 - 17.00 320° 20
1574272800 18.00 17.00 - 18.00 320° 20
1574276400 19.00 18.00 - 19.00 320° 10
1574280000 20.00 19.00 - 20.00 320° 10
1574283600 21.00 20.00 - 21.00 320° 15

Ihre Wetterstation

Fehlt Ihre Wetterstation auf unserem Portal?

Schreiben Sie an network@meteonews.ch

Klima

Wann ist es am wärmsten? Wann regnet es am wenigsten? Unsere Klimadaten geben Auskunft.